createdAt,value
2023-03-27T00:02:26.192Z,13.58
2023-03-27T00:04:54.711Z,13.65
2023-03-27T00:07:22.705Z,14.08
2023-03-27T00:09:50.527Z,14.13
2023-03-27T00:12:18.232Z,14.32
2023-03-27T00:14:46.435Z,14.01
2023-03-27T00:17:13.825Z,14.00
2023-03-27T00:19:41.479Z,14.23
2023-03-27T00:22:09.459Z,13.91
2023-03-27T00:24:37.384Z,14.18
2023-03-27T00:27:05.047Z,14.15
2023-03-27T00:29:33.332Z,14.45
2023-03-27T00:32:00.940Z,14.40
2023-03-27T00:34:30.168Z,14.57
2023-03-27T00:36:57.772Z,14.57
2023-03-27T00:39:25.209Z,14.67
2023-03-27T00:41:55.466Z,14.80
2023-03-27T00:44:38.008Z,14.84
2023-03-27T00:47:09.326Z,14.75
2023-03-27T00:49:37.461Z,14.89
2023-03-27T00:52:06.775Z,14.99
2023-03-27T00:54:38.729Z,14.97
2023-03-27T00:57:08.322Z,14.78
2023-03-27T00:59:39.716Z,14.82
2023-03-27T01:02:08.123Z,14.86
2023-03-27T01:04:37.751Z,14.53
2023-03-27T01:07:07.449Z,14.72
2023-03-27T01:09:34.941Z,14.83
2023-03-27T01:12:20.213Z,14.69
2023-03-27T01:15:04.943Z,14.82
2023-03-27T01:17:49.372Z,14.85
2023-03-27T01:20:16.768Z,15.00
2023-03-27T01:23:36.247Z,14.91
2023-03-27T01:26:44.222Z,14.96
2023-03-27T01:29:21.360Z,14.87
2023-03-27T01:32:11.084Z,14.93
2023-03-27T01:34:48.132Z,14.89
2023-03-27T01:37:56.900Z,14.76
2023-03-27T01:40:33.090Z,14.52
2023-03-27T01:43:00.403Z,14.52
2023-03-27T01:45:36.660Z,14.59
2023-03-27T01:48:13.376Z,14.54
2023-03-27T01:50:52.169Z,14.60
2023-03-27T01:53:53.610Z,14.70
2023-03-27T01:56:27.363Z,14.79
2023-03-27T01:59:04.071Z,14.64
2023-03-27T02:01:36.819Z,14.69
2023-03-27T02:04:07.598Z,14.73
2023-03-27T02:06:40.518Z,14.67
2023-03-27T02:09:28.459Z,14.43
2023-03-27T02:12:17.158Z,14.53
2023-03-27T02:15:26.170Z,14.56
2023-03-27T02:17:50.397Z,14.14
2023-03-27T02:20:18.260Z,13.56
2023-03-27T02:22:48.852Z,13.80
2023-03-27T02:25:39.009Z,14.11
2023-03-27T02:28:44.943Z,14.03
2023-03-27T02:31:33.942Z,13.97
2023-03-27T02:34:24.394Z,14.03
2023-03-27T02:37:17.565Z,14.01
2023-03-27T02:39:55.821Z,13.71
2023-03-27T02:42:32.748Z,14.26
2023-03-27T02:45:31.797Z,14.37
2023-03-27T02:48:11.743Z,14.52
2023-03-27T02:50:53.961Z,14.62
2023-03-27T02:53:24.067Z,14.53
2023-03-27T02:55:57.288Z,14.38
2023-03-27T02:58:30.772Z,14.38
2023-03-27T03:00:59.805Z,14.54
2023-03-27T03:03:44.354Z,14.62
2023-03-27T03:06:14.344Z,14.68
2023-03-27T03:08:43.271Z,14.64
2023-03-27T03:11:13.497Z,14.68
2023-03-27T03:13:41.398Z,14.59
2023-03-27T03:16:10.173Z,14.47
2023-03-27T03:18:37.847Z,14.47
2023-03-27T03:21:05.833Z,14.64
2023-03-27T03:23:34.045Z,14.70
2023-03-27T03:26:03.139Z,14.68
2023-03-27T03:28:35.096Z,14.73
2023-03-27T03:31:03.050Z,14.72
2023-03-27T03:33:31.764Z,14.69
2023-03-27T03:36:00.822Z,14.56
2023-03-27T03:38:30.010Z,14.57
2023-03-27T03:41:06.313Z,14.60
2023-03-27T03:43:34.301Z,14.65
2023-03-27T03:46:02.211Z,14.60
2023-03-27T03:48:29.638Z,14.57
2023-03-27T03:50:57.536Z,14.56
2023-03-27T03:53:25.256Z,14.68
2023-03-27T03:55:53.453Z,14.52
2023-03-27T03:58:21.542Z,14.64
2023-03-27T04:01:04.243Z,14.58
2023-03-27T04:03:32.908Z,14.39
2023-03-27T04:06:07.376Z,14.42
2023-03-27T04:08:35.420Z,14.40
2023-03-27T04:11:05.064Z,14.34
2023-03-27T04:13:33.150Z,14.25
2023-03-27T04:16:01.966Z,14.45
2023-03-27T04:18:33.021Z,14.28
2023-03-27T04:21:01.638Z,14.35
2023-03-27T04:23:32.226Z,14.12
2023-03-27T04:26:01.072Z,14.04
2023-03-27T04:28:34.318Z,14.16
2023-03-27T04:31:06.589Z,14.20
2023-03-27T04:33:39.837Z,14.12
2023-03-27T04:36:09.226Z,14.25
2023-03-27T04:38:39.658Z,14.36
2023-03-27T04:41:07.632Z,14.31
2023-03-27T04:43:40.288Z,14.28
2023-03-27T04:46:08.433Z,14.37
2023-03-27T04:48:38.565Z,14.12
2023-03-27T04:51:10.049Z,14.29
2023-03-27T04:53:38.039Z,14.28
2023-03-27T04:56:06.874Z,14.25
2023-03-27T04:58:37.285Z,13.92
2023-03-27T05:01:06.703Z,14.07
2023-03-27T05:03:39.124Z,14.12
2023-03-27T05:06:08.451Z,13.92
2023-03-27T05:08:37.204Z,14.02
2023-03-27T05:11:04.889Z,14.07
2023-03-27T05:13:36.770Z,13.97
2023-03-27T05:16:05.015Z,13.90
2023-03-27T05:18:35.807Z,14.18
2023-03-27T05:21:05.032Z,14.14
2023-03-27T05:23:32.673Z,13.83
2023-03-27T05:26:01.106Z,13.89
2023-03-27T05:28:34.373Z,14.17
2023-03-27T05:31:01.906Z,13.92
2023-03-27T05:33:30.245Z,14.16
2023-03-27T05:35:58.705Z,14.25
2023-03-27T05:38:26.643Z,14.39
2023-03-27T05:40:56.472Z,14.30
2023-03-27T05:43:24.775Z,14.41
2023-03-27T05:45:52.383Z,14.44
2023-03-27T05:48:20.300Z,14.44
2023-03-27T05:50:48.061Z,14.24
2023-03-27T05:53:15.842Z,14.24
2023-03-27T05:55:44.817Z,14.13
2023-03-27T05:58:13.477Z,14.28
2023-03-27T06:00:44.431Z,14.36
2023-03-27T06:03:13.968Z,14.29
2023-03-27T06:05:42.687Z,14.21
2023-03-27T06:08:12.945Z,14.11
2023-03-27T06:10:42.128Z,14.24
2023-03-27T06:13:12.919Z,14.12
2023-03-27T06:15:44.750Z,14.31
2023-03-27T06:18:15.100Z,14.09
2023-03-27T06:20:42.797Z,14.00
2023-03-27T06:23:10.576Z,14.31
2023-03-27T06:25:39.422Z,14.38
2023-03-27T06:28:09.466Z,14.44
2023-03-27T06:30:38.901Z,14.28
2023-03-27T06:33:09.858Z,14.32
2023-03-27T06:35:37.455Z,14.34
2023-03-27T06:38:07.086Z,14.39
2023-03-27T06:40:35.504Z,14.27
2023-03-27T06:43:08.191Z,14.44
2023-03-27T06:45:49.091Z,14.47
2023-03-27T06:48:22.039Z,14.51
2023-03-27T06:50:52.130Z,14.55
2023-03-27T06:55:51.399Z,14.62
2023-03-27T06:58:19.553Z,14.59
2023-03-27T07:00:49.768Z,14.56
2023-03-27T07:03:24.099Z,14.36
2023-03-27T07:05:53.282Z,14.66
2023-03-27T07:08:24.854Z,14.42
2023-03-27T07:13:25.151Z,14.55
2023-03-27T07:15:54.172Z,14.41
2023-03-27T07:18:22.775Z,14.47
2023-03-27T07:20:51.162Z,14.14
2023-03-27T07:23:18.930Z,14.32
2023-03-27T07:25:50.045Z,14.28
2023-03-27T07:28:21.078Z,14.45
2023-03-27T07:30:48.657Z,14.51
2023-03-27T07:33:20.684Z,14.29
2023-03-27T07:35:48.804Z,14.15
2023-03-27T07:38:18.720Z,14.32
2023-03-27T07:40:53.055Z,14.26
2023-03-27T07:43:21.994Z,14.39
2023-03-27T07:45:49.920Z,13.89
2023-03-27T07:48:18.730Z,14.17
2023-03-27T07:50:46.408Z,13.72
2023-03-27T07:53:33.439Z,13.70
2023-03-27T07:56:03.763Z,14.06
2023-03-27T07:58:32.316Z,13.89
2023-03-27T08:01:00.596Z,13.67
2023-03-27T08:03:31.238Z,12.90
2023-03-27T08:06:00.579Z,12.80
2023-03-27T08:08:29.613Z,12.43
2023-03-27T08:10:57.927Z,11.89
2023-03-27T08:13:26.287Z,12.26
2023-03-27T08:16:17.823Z,12.95
2023-03-27T08:18:46.912Z,13.03
2023-03-27T08:21:14.691Z,13.15
2023-03-27T08:23:42.737Z,13.35
2023-03-27T08:26:15.527Z,13.61
2023-03-27T08:28:46.131Z,13.06
2023-03-27T08:31:15.802Z,13.62
2023-03-27T08:33:43.843Z,13.79
2023-03-27T08:36:12.075Z,13.97
2023-03-27T08:38:39.690Z,13.91
2023-03-27T08:41:08.000Z,13.26
2023-03-27T08:43:42.091Z,13.73
2023-03-27T08:46:20.959Z,13.83
2023-03-27T08:49:05.003Z,13.53
2023-03-27T08:51:42.223Z,13.74
2023-03-27T08:54:16.580Z,13.68
2023-03-27T08:56:45.611Z,13.46
2023-03-27T08:59:17.344Z,13.72
2023-03-27T09:01:57.691Z,13.75
2023-03-27T09:04:28.470Z,13.51
2023-03-27T09:07:05.488Z,13.48
2023-03-27T09:09:55.565Z,13.45
2023-03-27T09:12:34.204Z,13.39
2023-03-27T09:15:10.004Z,13.34
2023-03-27T09:17:42.137Z,12.99
2023-03-27T09:20:10.124Z,12.65
2023-03-27T09:22:43.974Z,12.85
2023-03-27T09:25:38.125Z,12.46
2023-03-27T09:28:15.787Z,12.12
2023-03-27T09:30:43.756Z,12.59
2023-03-27T09:33:12.365Z,12.23
2023-03-27T09:35:42.247Z,12.50
2023-03-27T09:38:35.929Z,11.91
2023-03-27T09:41:08.121Z,11.68
2023-03-27T09:44:06.431Z,10.94
2023-03-27T09:46:36.765Z,11.31
2023-03-27T09:49:12.099Z,11.19
2023-03-27T09:51:46.126Z,11.52
2023-03-27T09:54:17.861Z,12.11
2023-03-27T09:56:51.971Z,11.99
2023-03-27T09:59:33.000Z,12.08
2023-03-27T10:02:21.140Z,12.08
2023-03-27T10:04:59.449Z,11.85
2023-03-27T10:07:27.918Z,12.55
2023-03-27T10:10:06.889Z,12.26
2023-03-27T10:12:35.797Z,12.39
2023-03-27T10:15:05.938Z,12.12
2023-03-27T10:17:39.340Z,11.65
2023-03-27T10:20:13.881Z,12.21
2023-03-27T10:22:43.189Z,12.44
2023-03-27T10:25:18.432Z,11.53
2023-03-27T10:27:46.681Z,11.95
2023-03-27T10:30:27.361Z,12.12
2023-03-27T10:32:55.564Z,12.98
2023-03-27T10:35:37.024Z,13.02
2023-03-27T10:38:14.306Z,13.12
2023-03-27T10:40:44.939Z,13.42
2023-03-27T10:43:27.084Z,13.40
2023-03-27T10:46:07.487Z,13.26
2023-03-27T10:49:00.308Z,13.24
2023-03-27T10:51:46.744Z,13.12
2023-03-27T10:54:31.989Z,13.23
2023-03-27T10:57:10.294Z,12.86
2023-03-27T11:00:13.512Z,12.96
2023-03-27T11:02:47.613Z,12.48
2023-03-27T11:05:19.670Z,12.88
2023-03-27T11:07:52.354Z,13.15
2023-03-27T11:10:24.361Z,12.57
2023-03-27T11:12:56.232Z,12.67
2023-03-27T11:15:28.453Z,12.44
2023-03-27T11:18:14.460Z,11.41
2023-03-27T11:21:01.998Z,11.63
2023-03-27T11:23:35.455Z,11.30
2023-03-27T11:26:06.043Z,10.67
2023-03-27T11:28:43.328Z,10.51
2023-03-27T11:31:32.282Z,10.31
2023-03-27T11:34:07.261Z,10.48
2023-03-27T11:36:55.294Z,10.31
2023-03-27T11:39:39.318Z,10.22
2023-03-27T11:42:31.626Z,10.22
2023-03-27T11:45:04.431Z,10.19
2023-03-27T11:48:07.850Z,10.13
2023-03-27T11:50:42.341Z,10.07
2023-03-27T11:53:28.504Z,10.35
2023-03-27T11:56:16.148Z,10.19
2023-03-27T11:58:47.834Z,10.53
2023-03-27T12:01:28.135Z,10.40
2023-03-27T12:04:09.333Z,10.09
2023-03-27T12:06:43.625Z,9.74
2023-03-27T12:09:33.265Z,9.79
2023-03-27T12:12:11.979Z,10.34
2023-03-27T12:14:50.112Z,10.16
2023-03-27T12:17:21.860Z,10.10
2023-03-27T12:20:11.745Z,10.35
2023-03-27T12:22:47.952Z,9.57
2023-03-27T12:25:34.745Z,9.75
2023-03-27T12:28:41.268Z,9.78
2023-03-27T12:31:45.681Z,9.97
2023-03-27T12:34:34.393Z,9.40
2023-03-27T12:37:04.386Z,9.43
2023-03-27T12:39:31.798Z,9.47
2023-03-27T12:41:59.924Z,9.52
2023-03-27T12:44:30.341Z,9.70
2023-03-27T12:47:18.094Z,9.58
2023-03-27T12:49:48.575Z,9.22
2023-03-27T12:52:19.960Z,9.13
2023-03-27T12:55:17.573Z,9.41
2023-03-27T12:57:46.734Z,9.08
2023-03-27T13:00:23.880Z,9.09
2023-03-27T13:03:09.693Z,9.36
2023-03-27T13:06:08.476Z,9.22
2023-03-27T13:08:49.883Z,8.90
2023-03-27T13:11:30.286Z,8.81
2023-03-27T13:14:26.125Z,8.94
2023-03-27T13:17:03.222Z,8.47
2023-03-27T13:19:31.144Z,8.02
2023-03-27T13:22:24.429Z,8.24
2023-03-27T13:24:55.583Z,8.70
2023-03-27T13:27:38.691Z,8.40
2023-03-27T13:30:07.508Z,7.90
2023-03-27T13:32:40.605Z,7.61
2023-03-27T13:35:21.207Z,7.35
2023-03-27T13:37:49.057Z,7.24
2023-03-27T13:40:24.332Z,7.29
2023-03-27T13:43:26.763Z,7.13
2023-03-27T13:45:55.481Z,7.17
2023-03-27T13:48:40.104Z,7.05
2023-03-27T13:51:34.888Z,7.19
2023-03-27T13:54:42.340Z,7.65
2023-03-27T13:57:12.527Z,7.23
2023-03-27T13:59:51.581Z,7.14
2023-03-27T14:02:29.385Z,6.66
2023-03-27T14:05:12.696Z,6.77
2023-03-27T14:07:52.514Z,6.40
2023-03-27T14:10:35.592Z,6.26
2023-03-27T14:13:24.054Z,6.00
2023-03-27T14:16:03.842Z,6.40
2023-03-27T14:18:41.216Z,6.43
2023-03-27T14:21:31.352Z,6.44
2023-03-27T14:24:22.422Z,6.61
2023-03-27T14:26:52.742Z,6.47
2023-03-27T14:29:21.353Z,6.38
2023-03-27T14:31:49.321Z,6.16
2023-03-27T14:34:24.702Z,6.23
2023-03-27T14:36:56.168Z,5.94
2023-03-27T14:41:58.800Z,6.32
2023-03-27T14:44:30.329Z,6.07
2023-03-27T14:47:03.784Z,6.10
2023-03-27T14:49:38.816Z,5.87
2023-03-27T14:52:07.864Z,5.63
2023-03-27T14:54:52.264Z,5.72
2023-03-27T14:57:25.866Z,5.69
2023-03-27T14:59:54.757Z,5.40
2023-03-27T15:02:35.133Z,5.31
2023-03-27T15:05:12.143Z,5.08
2023-03-27T15:07:42.824Z,5.12
2023-03-27T15:10:24.509Z,4.92
2023-03-27T15:12:58.642Z,4.65
2023-03-27T15:15:38.961Z,5.47
2023-03-27T15:18:32.095Z,5.13
2023-03-27T15:21:58.520Z,4.91
2023-03-27T15:24:31.932Z,4.59
2023-03-27T15:27:00.897Z,4.84
2023-03-27T15:29:39.142Z,5.02
2023-03-27T15:32:12.101Z,4.56
2023-03-27T15:34:48.248Z,4.62
2023-03-27T15:37:23.384Z,5.03
2023-03-27T15:40:07.301Z,4.96
2023-03-27T15:42:47.529Z,4.65
2023-03-27T15:45:16.883Z,4.71
2023-03-27T15:47:45.557Z,4.74
2023-03-27T15:50:19.663Z,4.99
2023-03-27T15:52:51.716Z,4.71
2023-03-27T15:55:38.193Z,4.62
2023-03-27T15:58:16.509Z,4.60
2023-03-27T16:00:48.617Z,4.64
2023-03-27T16:03:22.615Z,4.24
2023-03-27T16:05:52.165Z,4.22
2023-03-27T16:08:28.654Z,4.24
2023-03-27T16:10:56.959Z,4.64
2023-03-27T16:13:37.244Z,4.58
2023-03-27T16:16:19.214Z,4.45
2023-03-27T16:18:49.322Z,4.60
2023-03-27T16:21:21.065Z,4.73
2023-03-27T16:23:48.873Z,4.82
2023-03-27T16:26:18.561Z,4.87
2023-03-27T16:28:46.193Z,4.62
2023-03-27T16:31:17.025Z,4.63
2023-03-27T16:33:45.806Z,5.13
2023-03-27T16:36:19.351Z,4.89
2023-03-27T16:38:46.813Z,4.99
2023-03-27T16:41:16.331Z,5.17
2023-03-27T16:43:44.900Z,4.73
2023-03-27T16:46:19.367Z,4.78
2023-03-27T16:48:47.149Z,4.68
2023-03-27T16:51:15.031Z,4.78
2023-03-27T16:53:42.410Z,5.03
2023-03-27T16:56:10.253Z,4.74
2023-03-27T16:58:38.469Z,4.70
2023-03-27T17:01:07.429Z,4.58
2023-03-27T17:03:37.159Z,4.98
2023-03-27T17:06:08.006Z,5.00
2023-03-27T17:08:36.649Z,5.09
2023-03-27T17:11:08.813Z,5.12
2023-03-27T17:13:37.380Z,4.89
2023-03-27T17:16:05.769Z,5.07
2023-03-27T17:18:34.777Z,5.30
2023-03-27T17:21:02.611Z,5.01
2023-03-27T17:23:30.059Z,4.77
2023-03-27T17:26:00.992Z,4.79
2023-03-27T17:28:29.357Z,4.73
2023-03-27T17:31:04.551Z,4.74
2023-03-27T17:33:33.644Z,4.81
2023-03-27T17:36:01.541Z,4.96
2023-03-27T17:38:29.563Z,4.38
2023-03-27T17:40:57.749Z,4.75
2023-03-27T17:43:25.176Z,4.66
2023-03-27T17:45:53.207Z,4.33
2023-03-27T17:48:20.969Z,4.51
2023-03-27T17:51:01.154Z,4.40
2023-03-27T17:53:37.230Z,4.29
2023-03-27T17:56:05.051Z,4.35
2023-03-27T17:58:34.167Z,4.38
2023-03-27T18:01:12.386Z,4.38
2023-03-27T18:03:40.317Z,4.51
2023-03-27T18:06:08.528Z,4.93
2023-03-27T18:08:36.166Z,4.80
2023-03-27T18:11:09.124Z,4.53
2023-03-27T18:13:37.539Z,4.39
2023-03-27T18:16:08.547Z,4.68
2023-03-27T18:18:39.444Z,4.68
2023-03-27T18:21:08.180Z,4.26
2023-03-27T18:23:35.572Z,4.26
2023-03-27T18:26:05.208Z,4.55
2023-03-27T18:28:33.782Z,4.28
2023-03-27T18:31:08.317Z,4.53
2023-03-27T18:33:36.285Z,4.60
2023-03-27T18:36:04.914Z,4.81
2023-03-27T18:38:32.656Z,4.50
2023-03-27T18:41:00.799Z,4.47
2023-03-27T18:43:28.597Z,4.41
2023-03-27T18:46:04.294Z,4.42
2023-03-27T18:48:32.058Z,4.46
2023-03-27T18:51:02.807Z,4.90
2023-03-27T18:53:30.988Z,4.86
2023-03-27T18:55:59.523Z,4.59
2023-03-27T18:58:28.555Z,4.68
2023-03-27T19:00:56.779Z,5.08
2023-03-27T19:03:26.340Z,4.65
2023-03-27T19:05:53.943Z,4.60
2023-03-27T19:08:21.908Z,4.80
2023-03-27T19:10:49.964Z,4.71
2023-03-27T19:13:17.824Z,4.88
2023-03-27T19:15:49.071Z,4.33
2023-03-27T19:18:18.664Z,4.66
2023-03-27T19:20:51.492Z,4.61
2023-03-27T19:23:19.777Z,4.31
2023-03-27T19:25:48.793Z,4.86
2023-03-27T19:28:17.101Z,4.49
2023-03-27T19:30:47.636Z,4.40
2023-03-27T19:33:15.603Z,4.96
2023-03-27T19:35:43.055Z,4.31
2023-03-27T19:38:13.023Z,4.66
2023-03-27T19:40:40.643Z,4.64
2023-03-27T19:43:08.111Z,4.24
2023-03-27T19:45:38.048Z,4.29
2023-03-27T19:48:05.687Z,4.35
2023-03-27T19:50:33.371Z,4.59
2023-03-27T19:53:08.841Z,3.93
2023-03-27T19:55:37.574Z,4.08
2023-03-27T19:58:05.455Z,4.02
2023-03-27T20:00:35.034Z,4.29
2023-03-27T20:03:02.936Z,4.19
2023-03-27T20:05:30.877Z,4.49
2023-03-27T20:08:01.041Z,4.10
2023-03-27T20:10:28.763Z,4.07
2023-03-27T20:12:56.413Z,3.94
2023-03-27T20:15:23.928Z,4.06
2023-03-27T20:17:54.986Z,4.36
2023-03-27T20:20:22.542Z,4.29
2023-03-27T20:22:57.640Z,4.14
2023-03-27T20:25:28.032Z,3.99
2023-03-27T20:27:56.326Z,4.02
2023-03-27T20:30:24.027Z,4.80
2023-03-27T20:32:52.375Z,4.74
2023-03-27T20:35:24.742Z,4.57
2023-03-27T20:37:56.066Z,4.68
2023-03-27T20:40:25.068Z,4.39
2023-03-27T20:43:03.142Z,4.44
2023-03-27T20:45:31.421Z,4.35
2023-03-27T20:48:05.064Z,4.13
2023-03-27T20:50:35.377Z,4.50
2023-03-27T20:53:04.404Z,4.16
2023-03-27T20:55:34.877Z,4.17
2023-03-27T20:58:07.163Z,4.18
2023-03-27T21:00:35.638Z,4.59
2023-03-27T21:03:03.204Z,4.65
2023-03-27T21:05:32.651Z,4.57
2023-03-27T21:08:00.147Z,4.41
2023-03-27T21:10:27.587Z,4.63
2023-03-27T21:12:56.732Z,4.46
2023-03-27T21:15:24.404Z,4.27
2023-03-27T21:17:51.934Z,4.58
2023-03-27T21:20:19.683Z,4.45
2023-03-27T21:22:52.634Z,4.21
2023-03-27T21:25:21.414Z,4.82
2023-03-27T21:27:51.036Z,5.10
2023-03-27T21:30:18.511Z,4.51
2023-03-27T21:32:47.195Z,4.93
2023-03-27T21:35:14.706Z,4.61
2023-03-27T21:37:42.432Z,5.14
2023-03-27T21:40:10.870Z,5.05
2023-03-27T21:42:38.250Z,4.54
2023-03-27T21:45:06.297Z,4.47
2023-03-27T21:47:46.498Z,4.65
2023-03-27T21:50:14.971Z,4.97
2023-03-27T21:52:42.674Z,5.31
2023-03-27T21:55:10.030Z,4.40
2023-03-27T21:57:37.398Z,4.26
2023-03-27T22:00:07.286Z,4.75
2023-03-27T22:02:41.282Z,4.20
2023-03-27T22:05:09.218Z,4.73
2023-03-27T22:07:36.864Z,4.16
2023-03-27T22:10:06.343Z,4.05
2023-03-27T22:12:36.011Z,4.56
2023-03-27T22:15:04.423Z,4.15
2023-03-27T22:17:31.893Z,4.19
2023-03-27T22:19:59.679Z,4.03
2023-03-27T22:22:27.160Z,4.05
2023-03-27T22:24:54.638Z,3.83
2023-03-27T22:27:22.349Z,3.72
2023-03-27T22:29:49.740Z,3.80
2023-03-27T22:32:17.124Z,3.59
2023-03-27T22:34:44.778Z,4.11
2023-03-27T22:37:12.181Z,4.25
2023-03-27T22:39:39.593Z,3.95
2023-03-27T22:42:07.246Z,4.43
2023-03-27T22:44:34.780Z,3.89
2023-03-27T22:47:02.176Z,4.08
2023-03-27T22:49:29.832Z,4.10
2023-03-27T22:51:57.203Z,4.22
2023-03-27T22:54:24.695Z,4.04
2023-03-27T22:56:55.136Z,3.92
2023-03-27T22:59:22.584Z,3.97
2023-03-27T23:01:50.044Z,3.80
2023-03-27T23:04:17.768Z,4.05
2023-03-27T23:06:45.359Z,3.85
2023-03-27T23:09:12.788Z,3.68
2023-03-27T23:11:41.337Z,4.03
2023-03-27T23:14:08.695Z,3.62
2023-03-27T23:16:36.928Z,4.01
2023-03-27T23:19:04.849Z,4.00
2023-03-27T23:21:32.391Z,4.15
2023-03-27T23:23:59.844Z,3.96
2023-03-27T23:26:27.680Z,4.47
2023-03-27T23:28:55.054Z,3.88
2023-03-27T23:31:22.678Z,4.14
2023-03-27T23:33:51.219Z,4.31
2023-03-27T23:36:21.614Z,4.29
2023-03-27T23:38:49.830Z,3.90
2023-03-27T23:41:17.958Z,4.23
2023-03-27T23:43:45.994Z,4.20
2023-03-27T23:46:13.868Z,4.10
2023-03-27T23:48:42.961Z,4.18
2023-03-27T23:51:11.819Z,4.88
2023-03-27T23:53:39.309Z,4.80
2023-03-27T23:56:07.612Z,4.48
2023-03-27T23:58:37.135Z,4.90
